createdAt,value
2019-05-14T00:02:37.730Z,10.30
2019-05-14T00:06:43.414Z,10.50
2019-05-14T00:10:53.212Z,10.40
2019-05-14T00:14:58.960Z,10.30
2019-05-14T00:19:04.677Z,10.20
2019-05-14T00:23:11.838Z,10.30
2019-05-14T00:27:21.680Z,10.40
2019-05-14T00:31:27.708Z,10.30
2019-05-14T00:35:35.755Z,10.30
2019-05-14T00:39:41.764Z,10.20
2019-05-14T00:43:51.529Z,10.30
2019-05-14T00:47:57.914Z,10.20
2019-05-14T00:52:05.854Z,10.20
2019-05-14T00:56:12.757Z,10.30
2019-05-14T01:00:18.491Z,10.30
2019-05-14T01:04:25.431Z,10.20
2019-05-14T01:08:31.905Z,10.10
2019-05-14T01:12:37.916Z,10.30
2019-05-14T01:16:43.532Z,10.10
2019-05-14T01:20:51.943Z,10.10
2019-05-14T01:24:57.742Z,10.10
2019-05-14T01:29:06.226Z,10.10
2019-05-14T01:33:11.984Z,10.10
2019-05-14T01:37:17.804Z,10.00
2019-05-14T01:41:24.459Z,10.10
2019-05-14T01:45:31.774Z,10.00
2019-05-14T01:49:37.623Z,9.90
2019-05-14T01:53:43.337Z,10.10
2019-05-14T01:57:48.942Z,10.00
2019-05-14T02:01:57.855Z,10.00
2019-05-14T02:06:04.088Z,10.10
2019-05-14T02:10:11.649Z,10.00
2019-05-14T02:14:18.078Z,10.00
2019-05-14T02:18:26.857Z,9.80
2019-05-14T02:22:32.484Z,9.80
2019-05-14T02:26:42.443Z,9.70
2019-05-14T02:30:57.212Z,9.90
2019-05-14T02:34:55.050Z,9.80
2019-05-14T02:39:01.249Z,9.80
2019-05-14T02:43:09.760Z,10.00
2019-05-14T02:47:19.539Z,9.80
2019-05-14T02:51:24.625Z,9.80
2019-05-14T02:55:30.257Z,9.70
2019-05-14T02:59:39.434Z,9.70
2019-05-14T03:03:49.287Z,9.80
2019-05-14T03:07:53.592Z,9.80
2019-05-14T03:11:59.696Z,9.50
2019-05-14T03:16:22.143Z,9.60
2019-05-14T03:20:13.943Z,9.70
2019-05-14T03:24:19.920Z,9.70
2019-05-14T03:28:26.338Z,9.50
2019-05-14T03:32:33.260Z,9.40
2019-05-14T03:36:43.026Z,9.50
2019-05-14T03:40:49.290Z,9.50
2019-05-14T03:44:55.558Z,9.50
2019-05-14T03:49:01.615Z,9.60
2019-05-14T03:53:10.275Z,9.50
2019-05-14T03:57:19.788Z,9.60
2019-05-14T04:01:29.371Z,9.60
2019-05-14T04:05:33.539Z,9.40
2019-05-14T04:09:40.036Z,9.50
2019-05-14T04:13:49.448Z,9.30
2019-05-14T04:17:55.584Z,9.40
2019-05-14T04:22:01.277Z,9.50
2019-05-14T04:26:09.443Z,9.50
2019-05-14T04:30:19.044Z,9.60
2019-05-14T04:34:22.628Z,9.50
2019-05-14T04:38:29.970Z,9.50
2019-05-14T04:42:39.878Z,9.50
2019-05-14T04:46:45.028Z,9.30
2019-05-14T04:50:50.658Z,9.30
2019-05-14T04:54:59.184Z,9.40
2019-05-14T04:59:03.551Z,9.50
2019-05-14T05:03:12.678Z,9.40
2019-05-14T05:07:19.195Z,9.40
2019-05-14T05:11:23.788Z,9.10
2019-05-14T05:15:29.501Z,9.20
2019-05-14T05:19:35.228Z,9.30
2019-05-14T05:23:40.866Z,9.40
2019-05-14T05:27:48.543Z,9.30
2019-05-14T05:31:53.657Z,9.30
2019-05-14T05:35:59.581Z,9.20
2019-05-14T05:40:05.903Z,9.30
2019-05-14T05:44:11.509Z,9.10
2019-05-14T05:48:18.763Z,9.20
2019-05-14T05:52:28.017Z,9.10
2019-05-14T05:56:33.010Z,9.20
2019-05-14T06:00:40.162Z,9.20
2019-05-14T06:04:48.066Z,9.10
2019-05-14T06:08:53.162Z,9.40
2019-05-14T06:12:58.809Z,9.40
2019-05-14T06:17:04.488Z,9.40
2019-05-14T06:21:10.133Z,9.30
2019-05-14T06:25:15.801Z,9.40
2019-05-14T06:29:21.406Z,9.50
2019-05-14T06:33:28.671Z,9.40
2019-05-14T06:37:34.314Z,9.20
2019-05-14T06:41:42.827Z,9.40
2019-05-14T06:45:49.519Z,9.30
2019-05-14T06:49:55.375Z,9.50
2019-05-14T06:54:01.141Z,9.40
2019-05-14T06:58:09.026Z,9.40
2019-05-14T07:02:14.286Z,9.60
2019-05-14T07:06:19.857Z,9.70
2019-05-14T07:10:25.560Z,9.60
2019-05-14T07:14:31.235Z,9.60
2019-05-14T07:18:46.490Z,9.60
2019-05-14T07:22:44.207Z,9.90
2019-05-14T07:26:49.993Z,10.00
2019-05-14T07:30:55.659Z,9.90
2019-05-14T07:35:01.344Z,9.80
2019-05-14T07:39:09.543Z,10.00
2019-05-14T07:43:15.306Z,9.90
2019-05-14T07:47:21.223Z,10.10
2019-05-14T07:51:28.257Z,10.10
2019-05-14T07:55:34.017Z,10.10
2019-05-14T07:59:41.175Z,10.20
2019-05-14T08:03:48.738Z,10.00
2019-05-14T08:07:54.202Z,10.30
2019-05-14T08:11:59.955Z,10.30
2019-05-14T08:16:05.607Z,10.30
2019-05-14T08:20:11.194Z,10.40
2019-05-14T08:24:21.744Z,10.50
2019-05-14T08:28:24.134Z,10.40
2019-05-14T08:32:29.846Z,10.60
2019-05-14T08:36:37.806Z,10.60
2019-05-14T08:40:42.689Z,10.60
2019-05-14T08:44:51.208Z,10.60
2019-05-14T08:48:58.388Z,10.50
2019-05-14T08:53:03.832Z,10.70
2019-05-14T08:57:10.048Z,10.80
2019-05-14T09:01:19.506Z,10.80
2019-05-14T09:05:24.269Z,10.70
2019-05-14T09:09:29.970Z,10.60
2019-05-14T09:13:38.102Z,10.90
2019-05-14T09:17:43.858Z,10.90
2019-05-14T09:21:50.812Z,10.90
2019-05-14T09:25:58.705Z,11.00
2019-05-14T09:30:03.838Z,11.10
2019-05-14T09:34:09.440Z,11.20
2019-05-14T09:38:15.095Z,11.20
2019-05-14T09:42:20.670Z,11.10
2019-05-14T09:46:28.771Z,11.30
2019-05-14T09:50:33.787Z,11.30
2019-05-14T09:54:43.742Z,11.20
2019-05-14T09:58:49.223Z,11.20
2019-05-14T10:02:54.024Z,11.50
2019-05-14T10:06:59.753Z,11.40
2019-05-14T10:11:05.429Z,10.90
2019-05-14T10:15:11.173Z,11.40
2019-05-14T10:19:19.144Z,11.40
2019-05-14T10:23:24.176Z,11.80
2019-05-14T10:27:31.080Z,11.50
2019-05-14T10:31:39.567Z,11.70
2019-05-14T10:35:44.005Z,11.80
2019-05-14T10:39:51.001Z,11.80
2019-05-14T10:43:58.931Z,11.90
2019-05-14T10:48:03.801Z,12.00
2019-05-14T10:52:09.426Z,12.10
2019-05-14T10:56:15.096Z,12.20
2019-05-14T11:00:22.338Z,12.10
2019-05-14T11:04:28.768Z,12.40
2019-05-14T11:08:34.462Z,12.10
2019-05-14T11:12:40.752Z,12.10
2019-05-14T11:16:48.493Z,12.10
2019-05-14T11:20:53.741Z,11.70
2019-05-14T11:24:59.331Z,11.90
2019-05-14T11:29:04.935Z,12.10
2019-05-14T11:33:10.758Z,12.50
2019-05-14T11:37:18.559Z,12.30
2019-05-14T11:41:24.089Z,12.70
2019-05-14T11:45:30.002Z,12.60
2019-05-14T11:49:35.547Z,12.60
2019-05-14T11:53:41.500Z,12.80
2019-05-14T11:57:48.545Z,12.80
2019-05-14T12:01:55.570Z,12.80
2019-05-14T12:06:01.168Z,12.90
2019-05-14T12:10:09.072Z,13.00
2019-05-14T12:14:14.471Z,13.00
2019-05-14T12:18:20.135Z,12.80
2019-05-14T12:22:28.650Z,13.00
2019-05-14T12:26:33.650Z,12.60
2019-05-14T12:30:39.695Z,13.10
2019-05-14T12:34:45.421Z,12.90
2019-05-14T12:43:05.264Z,12.90
2019-05-14T12:47:10.925Z,12.60
2019-05-14T12:51:18.620Z,12.90
2019-05-14T12:55:24.776Z,12.40
2019-05-14T12:59:30.741Z,13.10
2019-05-14T13:03:36.366Z,13.20
2019-05-14T13:07:42.093Z,12.90
2019-05-14T13:11:48.073Z,12.80
2019-05-14T13:15:54.164Z,12.90
2019-05-14T13:19:59.839Z,12.70
2019-05-14T13:24:05.533Z,12.40
2019-05-14T13:28:11.276Z,12.70
2019-05-14T13:32:19.280Z,12.60
2019-05-14T13:36:24.356Z,13.30
2019-05-14T13:40:30.223Z,13.40
2019-05-14T13:44:38.351Z,13.40
2019-05-14T13:48:44.041Z,13.30
2019-05-14T13:53:09.266Z,13.50
2019-05-14T13:56:58.627Z,13.70
2019-05-14T14:01:05.256Z,13.60
2019-05-14T14:05:11.025Z,13.40
2019-05-14T14:09:16.782Z,13.40
2019-05-14T14:13:22.462Z,13.30
2019-05-14T14:17:29.218Z,13.70
2019-05-14T14:21:36.110Z,13.60
2019-05-14T14:25:42.470Z,13.10
2019-05-14T14:29:49.309Z,13.20
2019-05-14T14:33:55.118Z,13.80
2019-05-14T14:38:00.794Z,13.40
2019-05-14T14:42:06.433Z,13.30
2019-05-14T14:46:14.292Z,13.70
2019-05-14T14:50:19.568Z,13.40
2019-05-14T14:54:28.812Z,13.60
2019-05-14T14:58:34.605Z,13.00
2019-05-14T15:02:41.423Z,13.20
2019-05-14T15:06:50.446Z,13.30
2019-05-14T15:10:55.049Z,13.60
2019-05-14T15:15:00.681Z,13.40
2019-05-14T15:19:09.225Z,13.50
2019-05-14T15:23:13.850Z,13.40
2019-05-14T15:27:19.489Z,13.60
2019-05-14T15:31:25.146Z,13.40
2019-05-14T15:35:30.762Z,13.20
2019-05-14T15:39:38.908Z,13.50
2019-05-14T15:43:43.712Z,13.10
2019-05-14T15:47:49.304Z,12.90
2019-05-14T15:51:54.996Z,13.00
2019-05-14T15:56:00.767Z,12.80
2019-05-14T16:00:08.694Z,13.20
2019-05-14T16:04:13.749Z,12.90
2019-05-14T16:08:22.793Z,13.40
2019-05-14T16:12:28.740Z,12.50
2019-05-14T16:16:34.117Z,12.60
2019-05-14T16:20:39.775Z,12.80
2019-05-14T16:24:56.382Z,13.00
2019-05-14T16:28:52.721Z,12.90
2019-05-14T16:33:00.187Z,12.90
2019-05-14T16:37:10.742Z,12.50
2019-05-14T16:41:13.160Z,12.80
2019-05-14T16:45:19.146Z,12.60
2019-05-14T16:49:24.915Z,12.30
2019-05-14T16:53:30.635Z,12.40
2019-05-14T16:57:38.709Z,12.30
2019-05-14T17:01:45.546Z,12.10
2019-05-14T17:05:51.262Z,12.30
2019-05-14T17:09:58.156Z,12.10
2019-05-14T17:14:04.916Z,12.10
2019-05-14T17:18:11.376Z,11.70
2019-05-14T17:22:27.673Z,12.10
2019-05-14T17:26:25.544Z,11.80
2019-05-14T17:30:31.322Z,12.10
2019-05-14T17:34:38.871Z,11.90
2019-05-14T17:38:44.835Z,12.10
2019-05-14T17:42:50.738Z,11.60
2019-05-14T17:47:01.994Z,11.60
2019-05-14T17:51:09.418Z,11.60
2019-05-14T17:55:18.861Z,11.30
2019-05-14T17:59:24.546Z,11.30
2019-05-14T18:03:30.327Z,11.30
2019-05-14T18:07:36.141Z,11.20
2019-05-14T18:11:41.810Z,11.20
2019-05-14T18:15:48.821Z,11.10
2019-05-14T18:19:54.708Z,11.10
2019-05-14T18:24:02.858Z,11.00
2019-05-14T18:28:09.443Z,11.10
2019-05-14T18:32:19.033Z,10.90
2019-05-14T18:36:25.018Z,10.80
2019-05-14T18:40:32.749Z,10.40
2019-05-14T18:44:39.112Z,10.50
2019-05-14T18:48:45.256Z,10.80
2019-05-14T18:52:54.558Z,10.60
2019-05-14T18:57:04.924Z,10.60
2019-05-14T19:01:12.674Z,10.50
2019-05-14T19:05:18.442Z,10.60
2019-05-14T19:09:24.654Z,10.40
2019-05-14T19:13:30.698Z,10.30
2019-05-14T19:17:38.645Z,10.20
2019-05-14T19:21:45.777Z,10.30
2019-05-14T19:25:51.660Z,10.20
2019-05-14T19:29:59.208Z,10.10
2019-05-14T19:34:08.491Z,10.20
2019-05-14T19:38:19.595Z,9.90
2019-05-14T19:42:28.587Z,9.90
2019-05-14T19:46:33.904Z,9.80
2019-05-14T19:50:39.646Z,9.60
2019-05-14T19:54:45.454Z,9.70
2019-05-14T19:58:51.202Z,9.90
2019-05-14T20:02:58.209Z,9.70
2019-05-14T20:07:05.380Z,9.60
2019-05-14T20:11:13.193Z,9.60
2019-05-14T20:15:19.025Z,9.40
2019-05-14T20:19:28.481Z,9.70
2019-05-14T20:23:34.175Z,9.60
2019-05-14T20:27:41.519Z,9.50
2019-05-14T20:31:48.205Z,9.40
2019-05-14T20:35:58.825Z,9.10
2019-05-14T20:40:04.307Z,9.50
2019-05-14T20:44:14.049Z,9.30
2019-05-14T20:48:19.839Z,9.30
2019-05-14T20:52:25.673Z,9.30
2019-05-14T20:56:31.359Z,9.30
2019-05-14T21:00:41.537Z,9.20
2019-05-14T21:04:53.496Z,9.30
2019-05-14T21:08:54.688Z,9.40
2019-05-14T21:13:00.892Z,9.30
2019-05-14T21:17:08.482Z,9.20
2019-05-14T21:21:13.875Z,9.30
2019-05-14T21:25:21.196Z,9.20
2019-05-14T21:29:30.612Z,9.10
2019-05-14T21:33:39.519Z,9.00
2019-05-14T21:37:45.263Z,9.10
2019-05-14T21:41:52.450Z,9.30
2019-05-14T21:45:58.639Z,9.00
2019-05-14T21:50:05.927Z,9.10
2019-05-14T21:54:13.531Z,8.90
2019-05-14T21:58:19.820Z,8.90
2019-05-14T22:02:28.245Z,9.00
2019-05-14T22:06:33.049Z,8.80
2019-05-14T22:10:39.703Z,9.00
2019-05-14T22:14:48.172Z,9.00
2019-05-14T22:18:54.464Z,8.80
2019-05-14T22:23:00.221Z,9.00
2019-05-14T22:27:06.163Z,8.80
2019-05-14T22:31:11.887Z,9.00
2019-05-14T22:35:18.708Z,8.80
2019-05-14T22:39:25.097Z,8.90
2019-05-14T22:43:31.296Z,8.80
2019-05-14T22:47:40.000Z,8.80
2019-05-14T22:51:44.483Z,8.60
2019-05-14T22:55:50.176Z,8.70
2019-05-14T22:59:57.998Z,8.60
2019-05-14T23:04:03.548Z,8.50
2019-05-14T23:08:11.035Z,8.60
2019-05-14T23:12:17.097Z,8.50
2019-05-14T23:16:34.338Z,8.60
2019-05-14T23:20:31.949Z,8.50
2019-05-14T23:24:39.074Z,8.60
2019-05-14T23:28:49.060Z,8.70
2019-05-14T23:32:53.620Z,8.70
2019-05-14T23:36:59.245Z,8.50
2019-05-14T23:41:04.931Z,8.40
2019-05-14T23:45:10.634Z,8.50
2019-05-14T23:49:18.388Z,8.50
2019-05-14T23:53:24.544Z,8.60
2019-05-14T23:57:30.271Z,8.60
